sim
Sign-in with your pilot id or email,
or register
Callsign
Passwort

Schedule Details

Flight Number: DLH2432 (1)
Departure: Munich Airport (EDDM) at 19:35
Arrival: Gothenburg Landvetter Airport (ESGG) at 21:30
Route: Lufthansa Passenger Schedule. Enter filed route here before submitting Pirep.

Weather Information
Getting current METAR information for EDDM 201720Z 03003KT 360V060 CAVOK 19/11 Q1015 NOSIG
Getting current METAR information for ESGG 201720Z 24007KT 9999 SCT007 BKN011 12/11 Q1020

Schedule Frequency

Route Map